Terminal Aerodrome Forecast
Issued by NWS Sioux Falls, SD

Home | Current Version | Previous Version | Graphics & Text | Print | Product List | Glossary On
Versions: 1 2 3 4 5 6 7 8 9 10 11 12 13 14 15
000
FTUS43 KFSD 150527
TAFHON
TAF
KHON 150527Z 1506/1606 34015G24KT P6SM SCT020 SCT035
      TEMPO 1506/1508 BKN020
     FM151700 34021G31KT P6SM SCT035
     FM152200 34017G24KT P6SM BKN020
     FM160100 34015G23KT P6SM BKN035
     FM160300 34014KT P6SM SCT045=

USA.gov is the U.S. government's official web portal to all federal, state and local government web resources and services.